createdAt,value
2017-03-12T00:00:38.767Z,77.03
2017-03-12T00:01:19.646Z,77.78
2017-03-12T00:02:00.536Z,77.03
2017-03-12T00:02:41.429Z,77.12
2017-03-12T00:03:22.308Z,77.69
2017-03-12T00:04:03.193Z,76.93
2017-03-12T00:04:44.074Z,77.31
2017-03-12T00:05:24.957Z,76.74
2017-03-12T00:06:05.847Z,76.74
2017-03-12T00:06:46.725Z,76.84
2017-03-12T00:07:27.604Z,76.74
2017-03-12T00:08:08.488Z,76.74
2017-03-12T00:08:49.371Z,76.93
2017-03-12T00:09:30.272Z,76.74
2017-03-12T00:10:11.163Z,76.84
2017-03-12T00:10:52.041Z,76.55
2017-03-12T00:11:32.920Z,76.27
2017-03-12T00:12:13.803Z,76.84
2017-03-12T00:12:54.688Z,76.55
2017-03-12T00:13:35.569Z,76.65
2017-03-12T00:14:16.453Z,76.84
2017-03-12T00:14:57.343Z,76.27
2017-03-12T00:15:38.218Z,76.08
2017-03-12T00:16:19.099Z,76.08
2017-03-12T00:16:59.987Z,75.89
2017-03-12T00:17:40.875Z,75.98
2017-03-12T00:18:21.762Z,76.55
2017-03-12T00:19:02.635Z,76.17
2017-03-12T00:19:43.513Z,76.08
2017-03-12T00:20:24.398Z,76.65
2017-03-12T00:21:05.286Z,76.36
2017-03-12T00:21:46.166Z,76.84
2017-03-12T00:22:27.046Z,76.36
2017-03-12T00:23:07.931Z,76.36
2017-03-12T00:23:48.832Z,76.74
2017-03-12T00:24:29.698Z,76.93
2017-03-12T00:25:10.575Z,77.31
2017-03-12T00:25:51.460Z,76.27
2017-03-12T00:26:32.345Z,76.36
2017-03-12T00:27:13.229Z,76.27
2017-03-12T00:27:54.108Z,76.08
2017-03-12T00:28:35.000Z,75.6
2017-03-12T00:29:15.880Z,75.98
2017-03-12T00:29:56.758Z,75.51
2017-03-12T00:30:37.634Z,75.6
2017-03-12T00:31:18.521Z,75.32
2017-03-12T00:31:59.419Z,75.04
2017-03-12T00:32:40.274Z,75.13
2017-03-12T00:33:21.151Z,75.42
2017-03-12T00:34:02.035Z,75.6
2017-03-12T00:34:42.917Z,75.6
2017-03-12T00:35:23.798Z,75.6
2017-03-12T00:36:04.665Z,75.6
2017-03-12T00:36:45.550Z,75.79
2017-03-12T00:37:26.432Z,76.08
2017-03-12T00:38:07.331Z,76.17
2017-03-12T00:38:48.210Z,76.46
2017-03-12T00:39:29.090Z,76.61
2017-03-12T00:40:09.972Z,76.7
2017-03-12T00:40:50.863Z,76.7
2017-03-12T00:41:31.739Z,76.74
2017-03-12T00:42:12.619Z,76.8
2017-03-12T00:42:53.502Z,77.08
2017-03-12T00:43:34.395Z,76.7
2017-03-12T00:44:15.284Z,76.55
2017-03-12T00:44:56.166Z,76.42
2017-03-12T00:45:37.050Z,76.74
2017-03-12T00:46:17.933Z,76.61
2017-03-12T00:46:58.817Z,76.55
2017-03-12T00:47:39.698Z,76.55
2017-03-12T00:48:20.585Z,76.27
2017-03-12T00:49:01.471Z,76.17
2017-03-12T00:49:42.358Z,76.23
2017-03-12T00:50:23.246Z,76.36
2017-03-12T00:51:04.134Z,76.99
2017-03-12T00:51:45.010Z,76.7
2017-03-12T00:52:25.893Z,76.89
2017-03-12T00:53:06.771Z,76.61
2017-03-12T00:53:47.655Z,77.22
2017-03-12T00:54:28.538Z,76.46
2017-03-12T00:55:09.420Z,76.08
2017-03-12T00:55:50.303Z,75.7
2017-03-12T00:56:31.189Z,75.89
2017-03-12T00:57:12.069Z,75.98
2017-03-12T00:57:52.949Z,76.46
2017-03-12T00:58:33.818Z,75.98
2017-03-12T00:59:14.700Z,76.51
2017-03-12T00:59:55.586Z,76.51
2017-03-12T01:00:36.473Z,76.89
2017-03-12T01:01:17.356Z,76.99
2017-03-12T01:01:58.236Z,76.61
2017-03-12T01:02:39.124Z,76.46
2017-03-12T01:03:20.011Z,76.23
2017-03-12T01:04:00.898Z,76.51
2017-03-12T01:04:41.795Z,76.42
2017-03-12T01:05:22.679Z,76.99
2017-03-12T01:06:03.558Z,76.51
2017-03-12T01:06:44.436Z,76.14
2017-03-12T01:07:25.317Z,76.17
2017-03-12T01:08:06.200Z,76.65
2017-03-12T01:08:47.087Z,75.79
2017-03-12T01:09:27.966Z,76.08
2017-03-12T01:10:08.849Z,76.17
2017-03-12T01:10:49.726Z,75.42
2017-03-12T01:11:30.613Z,75.51
2017-03-12T01:12:11.492Z,75.42
2017-03-12T01:12:52.392Z,75.09
2017-03-12T01:13:33.274Z,75.85
2017-03-12T01:14:14.152Z,76.32
2017-03-12T01:14:55.038Z,76.7
2017-03-12T01:15:35.924Z,76.42
2017-03-12T01:16:16.805Z,76.32
2017-03-12T01:16:57.689Z,76.14
2017-03-12T01:17:38.565Z,76.08
2017-03-12T01:18:19.454Z,75.95
2017-03-12T01:19:00.339Z,76.23
2017-03-12T01:19:41.225Z,76.27
2017-03-12T01:20:22.106Z,76.32
2017-03-12T01:21:02.993Z,76.99
2017-03-12T01:21:43.872Z,76.7
2017-03-12T01:22:24.765Z,76.7
2017-03-12T01:23:05.651Z,76.89
2017-03-12T01:23:46.536Z,76.99
2017-03-12T01:24:27.428Z,76.32
2017-03-12T01:25:08.310Z,77.08
2017-03-12T01:25:49.192Z,76.8
2017-03-12T01:26:30.076Z,76.8
2017-03-12T01:27:10.957Z,77.18
2017-03-12T01:27:51.843Z,77.08
2017-03-12T01:28:32.722Z,76.99
2017-03-12T01:29:13.624Z,76.8
2017-03-12T01:29:54.516Z,76.7
2017-03-12T01:30:35.394Z,76.51
2017-03-12T01:31:16.279Z,76.14
2017-03-12T01:31:57.157Z,76.51
2017-03-12T01:32:38.049Z,76.42
2017-03-12T01:33:18.938Z,76.8
2017-03-12T01:33:59.822Z,76.51
2017-03-12T01:34:40.702Z,77.18
2017-03-12T01:35:21.583Z,76.7
2017-03-12T01:36:02.462Z,77.65
2017-03-12T01:36:43.347Z,77.84
2017-03-12T01:37:24.224Z,76.61
2017-03-12T01:38:05.115Z,76.8
2017-03-12T01:38:46.001Z,76.8
2017-03-12T01:39:26.879Z,76.61
2017-03-12T01:40:07.763Z,76.89
2017-03-12T01:40:48.653Z,77.08
2017-03-12T01:41:29.538Z,76.99
2017-03-12T01:42:10.421Z,77.65
2017-03-12T01:42:51.302Z,77.56
2017-03-12T01:43:32.180Z,77.37
2017-03-12T01:44:13.052Z,77.75
2017-03-12T01:44:53.937Z,78.5
2017-03-12T01:45:34.814Z,78.69
2017-03-12T01:46:15.696Z,78.03
2017-03-12T01:46:56.558Z,77.65
2017-03-12T01:47:37.443Z,77.56
2017-03-12T01:48:18.332Z,77.84
2017-03-12T01:48:59.226Z,77.84
2017-03-12T01:49:40.106Z,77.56
2017-03-12T01:50:20.991Z,77.94
2017-03-12T01:51:01.871Z,77.94
2017-03-12T01:51:42.756Z,78.03
2017-03-12T01:52:23.640Z,77.75
2017-03-12T01:53:04.530Z,77.46
2017-03-12T01:53:45.422Z,77.37
2017-03-12T01:54:26.289Z,77.56
2017-03-12T01:55:07.172Z,77.65
2017-03-12T01:55:48.050Z,78.41
2017-03-12T01:56:28.940Z,78.5
2017-03-12T01:57:09.821Z,78.98
2017-03-12T01:57:50.704Z,78.59
2017-03-12T01:58:31.580Z,78.69
2017-03-12T01:59:12.456Z,78.69
2017-03-12T01:59:53.335Z,78.41
2017-03-12T02:00:34.217Z,78.5
2017-03-12T02:01:15.097Z,78.59
2017-03-12T02:01:55.983Z,78.03
2017-03-12T02:02:36.868Z,78.41
2017-03-12T02:03:17.752Z,78.13
2017-03-12T02:03:58.630Z,78.31
2017-03-12T02:04:39.516Z,78.31
2017-03-12T02:05:20.420Z,78.79
2017-03-12T02:06:01.288Z,78.46
2017-03-12T02:06:42.161Z,78.5
2017-03-12T02:07:23.044Z,78.41
2017-03-12T02:08:03.930Z,78.03
2017-03-12T02:08:44.811Z,77.27
2017-03-12T02:09:25.697Z,77.56
2017-03-12T02:11:44.583Z,77.27
2017-03-12T02:12:25.467Z,77.84
2017-03-12T02:13:06.347Z,78.03
2017-03-12T02:13:47.226Z,77.46
2017-03-12T02:14:28.110Z,77.27
2017-03-12T02:15:08.990Z,77.65
2017-03-12T02:15:49.867Z,78.46
2017-03-12T02:16:30.745Z,78.85
2017-03-12T02:17:11.627Z,78.65
2017-03-12T02:17:52.511Z,78.27
2017-03-12T02:18:33.386Z,78.46
2017-03-12T02:19:14.269Z,78.65
2017-03-12T02:19:55.147Z,78.94
2017-03-12T02:20:36.033Z,78.85
2017-03-12T02:21:16.912Z,79.13
2017-03-12T02:21:57.790Z,79.17
2017-03-12T02:22:38.667Z,78.41
2017-03-12T02:23:19.552Z,78.27
2017-03-12T02:24:00.429Z,79.03
2017-03-12T02:24:41.308Z,78.85
2017-03-12T02:25:22.192Z,78.56
2017-03-12T02:26:03.074Z,78.85
2017-03-12T02:26:43.960Z,78.41
2017-03-12T02:27:24.842Z,78.31
2017-03-12T02:28:05.728Z,77.84
2017-03-12T02:28:46.605Z,77.84
2017-03-12T02:29:27.489Z,77.65
2017-03-12T02:30:08.372Z,77.56
2017-03-12T02:30:49.252Z,77.84
2017-03-12T02:31:30.126Z,77.56
2017-03-12T02:32:11.002Z,77.46
2017-03-12T02:32:51.886Z,77.65
2017-03-12T02:33:32.769Z,77.56
2017-03-12T02:34:13.651Z,77.8
2017-03-12T02:34:54.530Z,78.18
2017-03-12T02:35:35.423Z,78.56
2017-03-12T02:36:16.306Z,77.84
2017-03-12T02:36:57.187Z,78.46
2017-03-12T02:37:38.066Z,78.22
2017-03-12T02:38:18.956Z,78.46
2017-03-12T02:38:59.833Z,78.08
2017-03-12T02:39:40.717Z,78.59
2017-03-12T02:40:21.600Z,77.94
2017-03-12T02:41:02.485Z,77.84
2017-03-12T02:41:43.366Z,78.37
2017-03-12T02:42:24.253Z,78.94
2017-03-12T02:43:05.134Z,78.75
2017-03-12T02:43:46.015Z,78.56
2017-03-12T02:44:26.897Z,79.03
2017-03-12T02:45:07.780Z,78.65
2017-03-12T02:45:48.666Z,78.65
2017-03-12T02:46:29.550Z,78.65
2017-03-12T02:47:10.434Z,78.56
2017-03-12T02:47:51.309Z,78.46
2017-03-12T02:48:32.186Z,78.27
2017-03-12T02:49:13.069Z,78.56
2017-03-12T02:49:53.965Z,78.56
2017-03-12T02:50:34.841Z,78.65
2017-03-12T02:51:15.719Z,78.65
2017-03-12T02:51:56.588Z,78.75
2017-03-12T02:52:37.472Z,78.65
2017-03-12T02:53:18.354Z,78.85
2017-03-12T02:53:59.233Z,78.27
2017-03-12T02:54:40.120Z,78.37
2017-03-12T02:55:21.010Z,78.65
2017-03-12T02:56:01.892Z,78.65
2017-03-12T02:56:42.773Z,78.46
2017-03-12T02:57:23.656Z,79.13
2017-03-12T02:58:04.535Z,78.75
2017-03-12T02:58:45.419Z,78.46
2017-03-12T02:59:26.299Z,78.56
2017-03-12T03:00:07.180Z,78.27
2017-03-12T03:00:48.063Z,78.46
2017-03-12T03:01:28.944Z,79.13
2017-03-12T03:02:09.823Z,78.94
2017-03-12T03:02:50.702Z,78.94
2017-03-12T03:03:31.582Z,79.22
2017-03-12T03:04:12.473Z,79.22
2017-03-12T03:04:53.356Z,79.32
2017-03-12T03:05:34.234Z,79.32
2017-03-12T03:06:15.120Z,79.03
2017-03-12T03:06:56.000Z,78.37
2017-03-12T03:07:36.881Z,79.13
2017-03-12T03:08:17.763Z,79.32
2017-03-12T03:08:58.648Z,79.98
2017-03-12T03:09:39.531Z,80.26
2017-03-12T03:10:20.411Z,80.17
2017-03-12T03:11:01.287Z,80.07
2017-03-12T03:11:42.165Z,80.26
2017-03-12T03:12:23.051Z,80.26
2017-03-12T03:13:03.932Z,80.17
2017-03-12T03:13:44.812Z,80.17
2017-03-12T03:14:25.690Z,80.64
2017-03-12T03:15:06.567Z,80.17
2017-03-12T03:15:47.453Z,80.26
2017-03-12T03:16:28.336Z,79.69
2017-03-12T03:17:09.217Z,79.6
2017-03-12T03:17:50.120Z,79.32
2017-03-12T03:18:30.965Z,79.13
2017-03-12T03:19:11.852Z,79.5
2017-03-12T03:19:52.734Z,79.79
2017-03-12T03:20:33.622Z,79.88
2017-03-12T03:21:14.506Z,79.88
2017-03-12T03:21:55.389Z,79.79
2017-03-12T03:22:36.270Z,79.22
2017-03-12T03:23:17.153Z,79.03
2017-03-12T03:23:58.033Z,79.03
2017-03-12T03:24:38.915Z,78.46
2017-03-12T03:25:19.791Z,79.22
2017-03-12T03:26:00.664Z,79.13
2017-03-12T03:26:41.548Z,79.13
2017-03-12T03:27:22.433Z,79.79
2017-03-12T03:28:03.313Z,79.5
2017-03-12T03:28:44.202Z,79.88
2017-03-12T03:29:25.084Z,80.17
2017-03-12T03:30:05.962Z,79.5
2017-03-12T03:30:46.839Z,79.69
2017-03-12T03:31:27.744Z,79.69
2017-03-12T03:32:08.598Z,79.69
2017-03-12T03:32:49.496Z,79.79
2017-03-12T03:33:30.378Z,79.6
2017-03-12T03:34:11.261Z,80.07
2017-03-12T03:34:52.146Z,79.69
2017-03-12T03:35:33.024Z,79.32
2017-03-12T03:36:13.937Z,79.5
2017-03-12T03:36:54.803Z,79.32
2017-03-12T03:37:35.683Z,79.22
2017-03-12T03:38:16.555Z,79.88
2017-03-12T03:38:57.429Z,79.88
2017-03-12T03:39:38.316Z,79.69
2017-03-12T03:40:19.195Z,80.17
2017-03-12T03:41:00.073Z,80.45
2017-03-12T03:41:40.956Z,80.64
2017-03-12T03:42:21.834Z,80.83
2017-03-12T03:43:02.715Z,80.17
2017-03-12T03:43:43.595Z,80.07
2017-03-12T03:44:24.478Z,80.36
2017-03-12T03:45:05.351Z,79.69
2017-03-12T03:45:46.238Z,79.79
2017-03-12T03:46:27.114Z,79.88
2017-03-12T03:47:07.995Z,80.07
2017-03-12T03:47:48.875Z,80.26
2017-03-12T03:48:29.758Z,80.36
2017-03-12T03:49:10.639Z,80.17
2017-03-12T03:49:51.527Z,80.17
2017-03-12T03:50:32.409Z,79.98
2017-03-12T03:51:13.290Z,79.69
2017-03-12T03:51:54.168Z,80.17
2017-03-12T03:52:35.051Z,79.98
2017-03-12T03:53:15.928Z,80.36
2017-03-12T03:53:56.819Z,79.88
2017-03-12T03:54:37.702Z,79.69
2017-03-12T03:55:18.581Z,79.13
2017-03-12T03:55:59.469Z,79.6
2017-03-12T03:56:40.349Z,79.6
2017-03-12T03:57:21.229Z,79.69
2017-03-12T03:58:02.122Z,79.6
2017-03-12T03:58:42.986Z,79.69
2017-03-12T03:59:23.868Z,80.17
2017-03-12T04:00:04.762Z,80.45
2017-03-12T04:00:45.637Z,81.12
2017-03-12T04:01:26.521Z,81.3
2017-03-12T04:02:07.398Z,80.93
2017-03-12T04:02:48.290Z,80.93
2017-03-12T04:03:29.166Z,80.74
2017-03-12T04:04:10.046Z,80.26
2017-03-12T04:04:50.927Z,80.26
2017-03-12T04:05:31.804Z,79.69
2017-03-12T04:06:12.682Z,79.5
2017-03-12T04:06:53.565Z,79.13
2017-03-12T04:07:34.448Z,79.13
2017-03-12T04:08:15.364Z,79.13
2017-03-12T04:08:56.243Z,79.22
2017-03-12T04:09:37.120Z,79.69
2017-03-12T04:10:17.998Z,79.88
2017-03-12T04:10:58.878Z,80.74
2017-03-12T04:11:39.755Z,80.45
2017-03-12T04:12:20.635Z,80.74
2017-03-12T04:13:01.528Z,80.45
2017-03-12T04:13:42.411Z,80.45
2017-03-12T04:14:23.297Z,80.6
2017-03-12T04:15:04.180Z,81.4
2017-03-12T04:15:45.062Z,80.55
2017-03-12T04:16:25.946Z,80.74
2017-03-12T04:17:06.828Z,80.17
2017-03-12T04:17:47.707Z,80.17
2017-03-12T04:18:28.593Z,80.64
2017-03-12T04:19:09.463Z,80.88
2017-03-12T04:19:50.345Z,80.55
2017-03-12T04:20:31.223Z,80.45
2017-03-12T04:21:12.103Z,80.17
2017-03-12T04:21:52.983Z,80.45
2017-03-12T04:22:33.861Z,80.07
2017-03-12T04:23:14.744Z,80.07
2017-03-12T04:23:55.626Z,80.74
2017-03-12T04:24:36.517Z,80.55
2017-03-12T04:25:17.395Z,80.74
2017-03-12T04:25:58.278Z,80.17
2017-03-12T04:26:39.159Z,80.36
2017-03-12T04:27:20.036Z,81.26
2017-03-12T04:28:00.918Z,81.49
2017-03-12T04:28:41.801Z,80.83
2017-03-12T04:29:22.683Z,80.74
2017-03-12T04:30:03.564Z,80.64
2017-03-12T04:30:44.445Z,80.55
2017-03-12T04:31:25.327Z,80.93
2017-03-12T04:32:06.203Z,80.93
2017-03-12T04:32:47.089Z,81.36
2017-03-12T04:33:27.965Z,82.68
2017-03-12T04:34:08.843Z,82.5
2017-03-12T04:34:49.726Z,81.59
2017-03-12T04:35:30.605Z,81.07
2017-03-12T04:36:11.481Z,81.93
2017-03-12T04:36:52.359Z,82.12
2017-03-12T04:37:33.233Z,81.64
2017-03-12T04:38:14.109Z,81.26
2017-03-12T04:38:54.985Z,81.4
2017-03-12T04:39:35.867Z,81.36
2017-03-12T04:40:16.740Z,81.45
2017-03-12T04:40:57.614Z,81.59
2017-03-12T04:41:38.493Z,81.07
2017-03-12T04:42:19.367Z,81.4
2017-03-12T04:43:00.237Z,81.12
2017-03-12T04:43:41.111Z,80.93
2017-03-12T04:44:21.988Z,80.36
2017-03-12T04:45:02.884Z,80.55
2017-03-12T04:45:43.765Z,80.36
2017-03-12T04:46:24.661Z,80.64
2017-03-12T04:47:05.515Z,80.74
2017-03-12T04:47:46.390Z,81.4
2017-03-12T04:48:27.272Z,80.83
2017-03-12T04:49:08.147Z,80.93
2017-03-12T04:49:49.026Z,80.64
2017-03-12T04:50:29.901Z,81.12
2017-03-12T04:51:10.776Z,80.74
2017-03-12T04:51:51.648Z,81.49
2017-03-12T04:52:32.522Z,81.45
2017-03-12T04:53:13.408Z,81.3
2017-03-12T04:53:54.274Z,80.74
2017-03-12T04:54:35.148Z,81.07
2017-03-12T04:55:16.018Z,81.55
2017-03-12T04:55:56.893Z,81.45
2017-03-12T04:56:37.777Z,81.83
2017-03-12T04:57:18.654Z,81.74
2017-03-12T04:57:59.528Z,81.93
2017-03-12T04:58:40.404Z,81.83
2017-03-12T04:59:21.275Z,82.21
2017-03-12T05:00:02.147Z,81.74
2017-03-12T05:00:43.027Z,81.49
2017-03-12T05:01:23.903Z,81.07
2017-03-12T05:02:04.773Z,81.07
2017-03-12T05:02:45.650Z,81.4
2017-03-12T05:03:26.530Z,80.83
2017-03-12T05:04:07.410Z,80.93
2017-03-12T05:04:48.292Z,80.79
2017-03-12T05:05:29.165Z,80.88
2017-03-12T05:06:10.049Z,81.07
2017-03-12T05:06:50.929Z,80.98
2017-03-12T05:07:31.809Z,81.26
2017-03-12T05:08:12.690Z,82.12
2017-03-12T05:08:53.568Z,82.4
2017-03-12T05:09:34.445Z,82.68
2017-03-12T05:10:15.317Z,82.5
2017-03-12T05:10:56.189Z,82.87
2017-03-12T05:11:37.068Z,82.78
2017-03-12T05:12:17.942Z,82.68
2017-03-12T05:12:58.820Z,82.87
2017-03-12T05:13:39.694Z,82.5
2017-03-12T05:14:20.589Z,82.68
2017-03-12T05:15:01.467Z,81.74
2017-03-12T05:15:42.344Z,82.4
2017-03-12T05:16:23.223Z,82.87
2017-03-12T05:17:04.097Z,83.25
2017-03-12T05:17:44.984Z,83.06
2017-03-12T05:18:25.844Z,83.06
2017-03-12T05:19:06.724Z,82.59
2017-03-12T05:19:47.599Z,82.5
2017-03-12T05:20:28.474Z,82.68
2017-03-12T05:21:09.351Z,82.5
2017-03-12T05:21:50.230Z,82.68
2017-03-12T05:22:31.106Z,82.5
2017-03-12T05:23:11.979Z,82.78
2017-03-12T05:23:52.851Z,83.44
2017-03-12T05:24:33.728Z,83.06
2017-03-12T05:25:14.602Z,83.34
2017-03-12T05:25:55.477Z,83.34
2017-03-12T05:26:36.354Z,83.25
2017-03-12T05:27:17.233Z,82.78
2017-03-12T05:27:58.108Z,82.68
2017-03-12T05:28:38.984Z,82.4
2017-03-12T05:29:19.850Z,81.93
2017-03-12T05:30:00.725Z,81.77
2017-03-12T05:30:41.603Z,81.17
2017-03-12T05:31:22.476Z,81.26
2017-03-12T05:32:03.353Z,81.45
2017-03-12T05:32:44.225Z,81.83
2017-03-12T05:33:25.096Z,81.93
2017-03-12T05:34:05.974Z,81.93
2017-03-12T05:34:46.850Z,82.5
2017-03-12T05:35:27.723Z,82.31
2017-03-12T05:36:08.631Z,82.5
2017-03-12T05:36:49.536Z,82.78
2017-03-12T05:37:30.383Z,82.59
2017-03-12T05:38:11.260Z,83.06
2017-03-12T05:38:52.136Z,82.5
2017-03-12T05:39:33.012Z,82.87
2017-03-12T05:40:13.892Z,83.15
2017-03-12T05:40:54.768Z,83.06
2017-03-12T05:41:35.645Z,82.87
2017-03-12T05:42:16.523Z,83.44
2017-03-12T05:42:57.397Z,83.34
2017-03-12T05:43:38.280Z,82.59
2017-03-12T05:44:19.154Z,82.31
2017-03-12T05:45:00.027Z,82.59
2017-03-12T05:45:40.906Z,82.21
2017-03-12T05:46:21.781Z,82.5
2017-03-12T05:47:02.648Z,82.21
2017-03-12T05:47:43.533Z,82.68
2017-03-12T05:48:24.405Z,82.5
2017-03-12T05:49:05.279Z,82.5
2017-03-12T05:49:46.156Z,82.12
2017-03-12T05:50:27.029Z,82.87
2017-03-12T05:51:07.907Z,83.15
2017-03-12T05:51:48.775Z,83.25
2017-03-12T05:52:29.662Z,82.87
2017-03-12T05:53:10.539Z,82.87
2017-03-12T05:53:51.410Z,82.5
2017-03-12T05:54:32.283Z,82.59
2017-03-12T05:55:13.157Z,82.31
2017-03-12T05:55:54.040Z,82.21
2017-03-12T05:56:34.915Z,82.78
2017-03-12T05:57:15.792Z,81.83
2017-03-12T05:57:56.666Z,82.12
2017-03-12T05:58:37.543Z,81.64
2017-03-12T05:59:18.417Z,81.74
2017-03-12T05:59:59.292Z,81.74
2017-03-12T06:00:40.162Z,81.93
2017-03-12T06:01:21.034Z,82.02
2017-03-12T06:02:01.908Z,81.64
2017-03-12T06:02:42.779Z,81.64
2017-03-12T06:03:23.656Z,82.12
2017-03-12T06:04:04.533Z,82.5
2017-03-12T06:04:45.410Z,83.44
2017-03-12T06:05:26.281Z,83.44
2017-03-12T06:06:07.154Z,83.25
2017-03-12T06:06:48.027Z,83.25
2017-03-12T06:07:28.903Z,83.15
2017-03-12T06:08:09.774Z,82.97
2017-03-12T06:08:50.643Z,83.06
2017-03-12T06:09:31.521Z,83.06
2017-03-12T06:10:12.394Z,83.15
2017-03-12T06:10:53.273Z,82.97
2017-03-12T06:11:34.142Z,83.15
2017-03-12T06:12:15.020Z,82.87
2017-03-12T06:12:55.895Z,82.68
2017-03-12T06:13:36.771Z,82.68
2017-03-12T06:14:17.648Z,82.31
2017-03-12T06:14:58.564Z,82.78
2017-03-12T06:15:39.396Z,81.74
2017-03-12T06:16:20.272Z,81.93
2017-03-12T06:17:01.144Z,81.93
2017-03-12T06:17:42.016Z,82.4
2017-03-12T06:18:22.886Z,83.63
2017-03-12T06:19:03.759Z,83.63
2017-03-12T06:19:44.634Z,83.25
2017-03-12T06:20:25.515Z,82.97
2017-03-12T06:21:06.398Z,83.34
2017-03-12T06:21:47.274Z,83.34
2017-03-12T06:22:28.150Z,83.06
2017-03-12T06:23:09.051Z,82.78
2017-03-12T06:23:49.927Z,83.44
2017-03-12T06:24:30.811Z,83.06
2017-03-12T06:25:11.683Z,83.53
2017-03-12T06:25:52.555Z,83.53
2017-03-12T06:26:33.431Z,83.72
2017-03-12T06:27:14.312Z,83.06
2017-03-12T06:27:55.186Z,83.06
2017-03-12T06:28:36.060Z,83.72
2017-03-12T06:29:16.938Z,83.72
2017-03-12T06:29:57.817Z,83.53
2017-03-12T06:30:38.691Z,83.25
2017-03-12T06:31:19.568Z,83.15
2017-03-12T06:32:00.446Z,83.06
2017-03-12T06:32:41.311Z,83.34
2017-03-12T06:33:22.190Z,82.68
2017-03-12T06:34:03.064Z,83.34
2017-03-12T06:34:43.942Z,83.15
2017-03-12T06:35:24.816Z,82.78
2017-03-12T06:36:05.687Z,82.34
2017-03-12T06:36:46.561Z,82.91
2017-03-12T06:37:27.440Z,81.96
2017-03-12T06:38:08.308Z,81.87
2017-03-12T06:38:49.192Z,81.96
2017-03-12T06:39:30.075Z,82.78
2017-03-12T06:40:10.950Z,82.5
2017-03-12T06:40:51.827Z,83.06
2017-03-12T06:41:32.700Z,83.2
2017-03-12T06:42:13.586Z,82.53
2017-03-12T06:42:54.465Z,82.4
2017-03-12T06:43:35.339Z,82.4
2017-03-12T06:44:16.212Z,82.15
2017-03-12T06:44:57.093Z,82.44
2017-03-12T06:45:37.969Z,82.53
2017-03-12T06:46:18.851Z,82.4
2017-03-12T06:46:59.727Z,82.34
2017-03-12T06:47:40.602Z,82.91
2017-03-12T06:48:21.477Z,82.25
2017-03-12T06:49:02.354Z,82.63
2017-03-12T06:49:43.231Z,82.44
2017-03-12T06:50:24.103Z,82.72
2017-03-12T06:51:04.983Z,83.06
2017-03-12T06:51:45.857Z,83.01
2017-03-12T06:52:26.728Z,82.63
2017-03-12T06:53:07.599Z,82.72
2017-03-12T06:53:48.480Z,82.72
2017-03-12T06:54:29.353Z,81.77
2017-03-12T06:55:10.229Z,81.87
2017-03-12T06:55:51.106Z,81.87
2017-03-12T06:56:31.976Z,81.77
2017-03-12T06:57:12.850Z,82.06
2017-03-12T06:57:53.721Z,81.87
2017-03-12T06:58:34.603Z,82.25
2017-03-12T06:59:15.476Z,82.63
2017-03-12T06:59:56.354Z,82.53
2017-03-12T07:00:37.227Z,82.63
2017-03-12T07:01:18.100Z,81.68
2017-03-12T07:01:58.975Z,81.59
2017-03-12T07:02:39.852Z,81.59
2017-03-12T07:03:20.725Z,81.12
2017-03-12T07:04:01.603Z,81.12
2017-03-12T07:04:42.464Z,81.49
2017-03-12T07:05:23.335Z,82.25
2017-03-12T07:06:04.211Z,82.34
2017-03-12T07:06:45.087Z,82.63
2017-03-12T07:07:25.966Z,81.96
2017-03-12T07:08:06.838Z,81.96
2017-03-12T07:08:47.714Z,81.59
2017-03-12T07:09:28.589Z,81.59
2017-03-12T07:10:09.460Z,81.77
2017-03-12T07:10:50.339Z,81.59
2017-03-12T07:11:31.221Z,81.12
2017-03-12T07:12:12.096Z,81.12
2017-03-12T07:12:52.970Z,81.21
2017-03-12T07:13:33.843Z,80.83
2017-03-12T07:14:14.724Z,81.3
2017-03-12T07:14:55.599Z,81.02
2017-03-12T07:15:36.478Z,81.3
2017-03-12T07:16:17.357Z,81.4
2017-03-12T07:16:58.233Z,81.25
2017-03-12T07:17:39.113Z,81.15
2017-03-12T07:18:19.996Z,81.44
2017-03-12T07:19:00.871Z,81.15
2017-03-12T07:19:41.745Z,81.25
2017-03-12T07:20:22.623Z,81.87
2017-03-12T07:21:03.501Z,81.63
2017-03-12T07:21:44.381Z,81.77
2017-03-12T07:22:25.255Z,81.82
2017-03-12T07:23:06.126Z,81.44
2017-03-12T07:23:47.001Z,81.53
2017-03-12T07:24:27.878Z,81.82
2017-03-12T07:25:08.757Z,81.68
2017-03-12T07:25:49.637Z,82.34
2017-03-12T07:26:30.516Z,82.15
2017-03-12T07:27:11.389Z,82.72
2017-03-12T07:27:52.265Z,82.01
2017-03-12T07:28:33.163Z,82.53
2017-03-12T07:29:14.037Z,82.91
2017-03-12T07:29:54.914Z,82.34
2017-03-12T07:30:35.792Z,82.53
2017-03-12T07:31:16.687Z,82.76
2017-03-12T07:31:57.563Z,82.01
2017-03-12T07:32:38.443Z,81.82
2017-03-12T07:33:19.331Z,81.87
2017-03-12T07:34:00.203Z,82.01
2017-03-12T07:34:41.089Z,82.1
2017-03-12T07:35:21.959Z,81.82
2017-03-12T07:36:02.837Z,81.72
2017-03-12T07:36:43.710Z,81.34
2017-03-12T07:37:24.583Z,81.44
2017-03-12T07:38:05.462Z,81.82
2017-03-12T07:38:46.365Z,82.1
2017-03-12T07:39:27.207Z,82.2
2017-03-12T07:40:08.109Z,82.2
2017-03-12T07:40:48.986Z,82.2
2017-03-12T07:41:29.868Z,82.53
2017-03-12T07:42:10.745Z,82.1
2017-03-12T07:42:51.618Z,82.48
2017-03-12T07:43:32.493Z,82.57
2017-03-12T07:44:13.372Z,82.57
2017-03-12T07:44:54.253Z,83.01
2017-03-12T07:45:35.133Z,82.91
2017-03-12T07:46:16.006Z,83.1
2017-03-12T07:46:56.881Z,83.33
2017-03-12T07:47:37.772Z,82.86
2017-03-12T07:48:18.655Z,82.48
2017-03-12T07:48:59.536Z,82.48
2017-03-12T07:49:40.423Z,82.39
2017-03-12T07:50:21.298Z,82.76
2017-03-12T07:51:02.173Z,82.39
2017-03-12T07:51:43.053Z,82.1
2017-03-12T07:52:23.926Z,81.92
2017-03-12T07:53:04.798Z,82.01
2017-03-12T07:53:45.675Z,82.57
2017-03-12T07:54:26.548Z,83.39
2017-03-12T07:55:07.426Z,83.43
2017-03-12T07:55:48.301Z,83.14
2017-03-12T07:56:29.166Z,82.95
2017-03-12T07:57:10.042Z,82.2
2017-03-12T07:57:50.920Z,82.86
2017-03-12T07:58:31.796Z,83.14
2017-03-12T07:59:12.669Z,82.95
2017-03-12T07:59:53.552Z,83.14
2017-03-12T08:00:34.435Z,84.09
2017-03-12T08:01:15.312Z,83.62
2017-03-12T08:01:56.190Z,84.52
2017-03-12T08:02:37.075Z,85.04
2017-03-12T08:03:17.951Z,84.94
2017-03-12T08:03:58.827Z,84.42
2017-03-12T08:04:39.703Z,84.61
2017-03-12T08:05:20.581Z,84.61
2017-03-12T08:06:01.462Z,84.81
2017-03-12T08:06:42.335Z,85
2017-03-12T08:07:23.216Z,84.75
2017-03-12T08:08:04.088Z,83.43
2017-03-12T08:08:44.957Z,83.24
2017-03-12T08:09:25.827Z,83.43
2017-03-12T08:10:06.704Z,83.05
2017-03-12T08:10:47.581Z,82.76
2017-03-12T08:11:28.460Z,82.01
2017-03-12T08:12:09.335Z,82.95
2017-03-12T08:12:50.210Z,82.86
2017-03-12T08:13:31.092Z,82.29
2017-03-12T08:14:11.970Z,82.48
2017-03-12T08:16:11.491Z,82.48
2017-03-12T08:16:52.353Z,82.57
2017-03-12T08:17:33.240Z,81.92
2017-03-12T08:18:14.113Z,82.01
2017-03-12T08:18:54.987Z,81.82
2017-03-12T08:19:35.857Z,82.29
2017-03-12T08:20:16.719Z,82.48
2017-03-12T08:20:57.600Z,81.92
2017-03-12T08:21:38.466Z,82.29
2017-03-12T08:22:19.343Z,81.63
2017-03-12T08:23:00.220Z,81.63
2017-03-12T08:23:41.089Z,81.53
2017-03-12T08:24:21.961Z,81.25
2017-03-12T08:25:02.825Z,80.82
2017-03-12T08:25:43.698Z,81.34
2017-03-12T08:26:24.632Z,81.06
2017-03-12T08:27:05.507Z,81.44
2017-03-12T08:27:46.377Z,81.25
2017-03-12T08:28:27.261Z,81.57
2017-03-12T08:29:08.136Z,80.82
2017-03-12T08:29:49.014Z,81.06
2017-03-12T08:30:29.892Z,81.44
2017-03-12T08:31:10.763Z,81.15
2017-03-12T08:31:51.652Z,80.82
2017-03-12T08:32:32.520Z,80.63
2017-03-12T08:33:13.396Z,80.82
2017-03-12T08:33:54.274Z,80.06
2017-03-12T08:34:35.144Z,80.06
2017-03-12T08:35:16.014Z,79.3
2017-03-12T08:35:56.886Z,79.58
2017-03-12T08:36:37.752Z,79.02
2017-03-12T08:37:18.627Z,79.87
2017-03-12T08:37:59.513Z,80.72
2017-03-12T08:38:40.388Z,80.82
2017-03-12T08:39:21.264Z,80.34
2017-03-12T08:40:02.137Z,79.87
2017-03-12T08:40:43.014Z,79.58
2017-03-12T08:41:23.912Z,80.44
2017-03-12T08:42:04.759Z,81.38
2017-03-12T08:42:45.633Z,81.76
2017-03-12T08:43:26.499Z,82.01
2017-03-12T08:44:07.368Z,82.05
2017-03-12T08:44:48.231Z,81.57
2017-03-12T08:45:29.108Z,81.2
2017-03-12T08:46:09.994Z,80.82
2017-03-12T08:46:50.879Z,80.34
2017-03-12T08:47:31.749Z,80.15
2017-03-12T08:48:12.624Z,79.58
2017-03-12T08:48:53.495Z,79.02
2017-03-12T08:49:34.376Z,79.3
2017-03-12T08:50:15.245Z,79.77
2017-03-12T08:50:56.119Z,79.96
2017-03-12T08:51:36.994Z,79.3